sensor_id;sensor_type;location;lat;lon;timestamp;P1;durP1;ratioP1;P2;durP2;ratioP2
19221;SDS011;9745;50.828;4.378;2023-07-16T00:02:25;8.67;;;2.33;;
19221;SDS011;9745;50.828;4.378;2023-07-16T00:04:51;13.13;;;2.60;;
19221;SDS011;9745;50.828;4.378;2023-07-16T00:07:17;6.73;;;2.40;;
19221;SDS011;9745;50.828;4.378;2023-07-16T00:09:43;6.97;;;2.50;;
19221;SDS011;9745;50.828;4.378;2023-07-16T00:12:09;8.13;;;2.50;;
19221;SDS011;9745;50.828;4.378;2023-07-16T00:14:35;8.27;;;2.90;;
19221;SDS011;9745;50.828;4.378;2023-07-16T00:17:01;7.37;;;2.17;;
19221;SDS011;9745;50.828;4.378;2023-07-16T00:19:28;8.40;;;2.57;;
19221;SDS011;9745;50.828;4.378;2023-07-16T00:21:54;8.83;;;2.30;;
19221;SDS011;9745;50.828;4.378;2023-07-16T00:24:20;10.77;;;3.30;;
19221;SDS011;9745;50.828;4.378;2023-07-16T00:26:46;10.90;;;2.83;;
19221;SDS011;9745;50.828;4.378;2023-07-16T00:29:12;9.57;;;2.43;;
19221;SDS011;9745;50.828;4.378;2023-07-16T00:31:38;10.90;;;2.40;;
19221;SDS011;9745;50.828;4.378;2023-07-16T00:34:04;9.50;;;2.50;;
19221;SDS011;9745;50.828;4.378;2023-07-16T00:36:31;11.97;;;3.10;;
19221;SDS011;9745;50.828;4.378;2023-07-16T00:38:57;7.63;;;2.50;;
19221;SDS011;9745;50.828;4.378;2023-07-16T00:41:23;8.40;;;2.67;;
19221;SDS011;9745;50.828;4.378;2023-07-16T00:43:49;10.13;;;2.60;;
19221;SDS011;9745;50.828;4.378;2023-07-16T00:46:15;6.67;;;2.30;;
19221;SDS011;9745;50.828;4.378;2023-07-16T00:48:41;9.73;;;3.00;;
19221;SDS011;9745;50.828;4.378;2023-07-16T00:51:07;10.30;;;2.80;;
19221;SDS011;9745;50.828;4.378;2023-07-16T00:53:33;12.17;;;2.57;;
19221;SDS011;9745;50.828;4.378;2023-07-16T00:55:59;7.27;;;2.20;;
19221;SDS011;9745;50.828;4.378;2023-07-16T00:58:26;7.70;;;2.57;;
19221;SDS011;9745;50.828;4.378;2023-07-16T01:00:52;12.80;;;2.57;;
19221;SDS011;9745;50.828;4.378;2023-07-16T01:03:18;8.63;;;2.47;;
19221;SDS011;9745;50.828;4.378;2023-07-16T01:08:27;8.07;;;2.70;;
19221;SDS011;9745;50.828;4.378;2023-07-16T01:10:56;9.33;;;3.00;;
19221;SDS011;9745;50.828;4.378;2023-07-16T01:13:23;8.60;;;2.67;;
19221;SDS011;9745;50.828;4.378;2023-07-16T01:15:49;9.20;;;2.60;;
19221;SDS011;9745;50.828;4.378;2023-07-16T01:18:15;7.47;;;2.40;;
19221;SDS011;9745;50.828;4.378;2023-07-16T01:20:41;6.03;;;3.07;;
19221;SDS011;9745;50.828;4.378;2023-07-16T01:23:20;12.00;;;2.70;;
19221;SDS011;9745;50.828;4.378;2023-07-16T01:30:48;4.10;;;2.77;;
19221;SDS011;9745;50.828;4.378;2023-07-16T01:33:16;9.83;;;3.10;;
19221;SDS011;9745;50.828;4.378;2023-07-16T01:35:42;9.03;;;2.63;;
19221;SDS011;9745;50.828;4.378;2023-07-16T01:38:09;5.03;;;2.90;;
19221;SDS011;9745;50.828;4.378;2023-07-16T01:40:35;9.93;;;3.50;;
19221;SDS011;9745;50.828;4.378;2023-07-16T01:43:01;7.63;;;3.03;;
19221;SDS011;9745;50.828;4.378;2023-07-16T01:45:27;8.83;;;2.80;;
19221;SDS011;9745;50.828;4.378;2023-07-16T01:50:25;9.07;;;2.80;;
19221;SDS011;9745;50.828;4.378;2023-07-16T01:52:51;12.30;;;2.83;;
19221;SDS011;9745;50.828;4.378;2023-07-16T01:55:17;11.80;;;2.90;;
19221;SDS011;9745;50.828;4.378;2023-07-16T01:57:43;9.90;;;2.87;;
19221;SDS011;9745;50.828;4.378;2023-07-16T02:00:09;12.10;;;2.87;;
19221;SDS011;9745;50.828;4.378;2023-07-16T02:02:35;8.03;;;2.73;;
19221;SDS011;9745;50.828;4.378;2023-07-16T02:05:01;14.20;;;3.43;;
19221;SDS011;9745;50.828;4.378;2023-07-16T02:07:27;9.27;;;3.00;;
19221;SDS011;9745;50.828;4.378;2023-07-16T02:09:53;8.37;;;2.40;;
19221;SDS011;9745;50.828;4.378;2023-07-16T02:12:19;6.83;;;2.77;;
19221;SDS011;9745;50.828;4.378;2023-07-16T02:14:45;13.67;;;3.53;;
19221;SDS011;9745;50.828;4.378;2023-07-16T02:17:11;9.77;;;2.93;;
19221;SDS011;9745;50.828;4.378;2023-07-16T02:19:37;9.70;;;3.40;;
19221;SDS011;9745;50.828;4.378;2023-07-16T02:22:03;11.00;;;3.20;;
19221;SDS011;9745;50.828;4.378;2023-07-16T02:24:29;8.90;;;3.17;;
19221;SDS011;9745;50.828;4.378;2023-07-16T02:26:55;8.63;;;3.60;;
19221;SDS011;9745;50.828;4.378;2023-07-16T02:29:21;8.40;;;3.53;;
19221;SDS011;9745;50.828;4.378;2023-07-16T02:31:47;14.77;;;5.07;;
19221;SDS011;9745;50.828;4.378;2023-07-16T02:34:13;7.00;;;3.40;;
19221;SDS011;9745;50.828;4.378;2023-07-16T02:36:39;12.20;;;3.77;;
19221;SDS011;9745;50.828;4.378;2023-07-16T02:39:05;9.93;;;4.40;;
19221;SDS011;9745;50.828;4.378;2023-07-16T02:41:31;10.27;;;4.00;;
19221;SDS011;9745;50.828;4.378;2023-07-16T02:44:01;8.47;;;4.07;;
19221;SDS011;9745;50.828;4.378;2023-07-16T02:46:27;10.63;;;4.17;;
19221;SDS011;9745;50.828;4.378;2023-07-16T02:48:53;7.20;;;3.90;;
19221;SDS011;9745;50.828;4.378;2023-07-16T02:51:19;10.47;;;4.90;;
19221;SDS011;9745;50.828;4.378;2023-07-16T02:53:45;11.37;;;4.50;;
19221;SDS011;9745;50.828;4.378;2023-07-16T02:56:11;7.43;;;4.43;;
19221;SDS011;9745;50.828;4.378;2023-07-16T02:58:37;13.47;;;4.70;;
19221;SDS011;9745;50.828;4.378;2023-07-16T03:01:03;14.30;;;4.10;;
19221;SDS011;9745;50.828;4.378;2023-07-16T03:03:29;12.03;;;4.00;;
19221;SDS011;9745;50.828;4.378;2023-07-16T03:05:55;8.70;;;4.37;;
19221;SDS011;9745;50.828;4.378;2023-07-16T03:08:21;12.60;;;5.10;;
19221;SDS011;9745;50.828;4.378;2023-07-16T03:10:47;11.87;;;4.27;;
19221;SDS011;9745;50.828;4.378;2023-07-16T03:13:13;11.77;;;4.50;;
19221;SDS011;9745;50.828;4.378;2023-07-16T03:15:39;8.07;;;3.97;;
19221;SDS011;9745;50.828;4.378;2023-07-16T03:18:05;9.07;;;4.00;;
19221;SDS011;9745;50.828;4.378;2023-07-16T03:20:31;14.53;;;4.10;;
19221;SDS011;9745;50.828;4.378;2023-07-16T03:22:57;12.73;;;4.90;;
19221;SDS011;9745;50.828;4.378;2023-07-16T03:25:23;10.03;;;4.23;;
19221;SDS011;9745;50.828;4.378;2023-07-16T03:27:49;11.63;;;3.80;;
19221;SDS011;9745;50.828;4.378;2023-07-16T03:30:15;11.23;;;4.07;;
19221;SDS011;9745;50.828;4.378;2023-07-16T03:32:41;9.10;;;4.10;;
19221;SDS011;9745;50.828;4.378;2023-07-16T03:35:07;8.73;;;3.83;;
19221;SDS011;9745;50.828;4.378;2023-07-16T03:37:33;10.10;;;3.90;;
19221;SDS011;9745;50.828;4.378;2023-07-16T03:40:11;10.03;;;4.73;;
19221;SDS011;9745;50.828;4.378;2023-07-16T03:42:37;13.70;;;4.90;;
19221;SDS011;9745;50.828;4.378;2023-07-16T03:45:03;9.47;;;4.27;;
19221;SDS011;9745;50.828;4.378;2023-07-16T03:47:30;8.87;;;4.47;;
19221;SDS011;9745;50.828;4.378;2023-07-16T03:49:55;11.50;;;5.03;;
19221;SDS011;9745;50.828;4.378;2023-07-16T03:52:22;9.23;;;4.97;;
19221;SDS011;9745;50.828;4.378;2023-07-16T03:54:49;13.93;;;4.33;;
19221;SDS011;9745;50.828;4.378;2023-07-16T03:57:15;9.53;;;4.40;;
19221;SDS011;9745;50.828;4.378;2023-07-16T03:59:41;11.27;;;4.97;;
19221;SDS011;9745;50.828;4.378;2023-07-16T04:02:08;13.47;;;4.77;;
19221;SDS011;9745;50.828;4.378;2023-07-16T04:04:34;11.87;;;4.47;;
19221;SDS011;9745;50.828;4.378;2023-07-16T04:07:00;11.67;;;4.80;;
19221;SDS011;9745;50.828;4.378;2023-07-16T04:09:26;13.67;;;5.10;;
19221;SDS011;9745;50.828;4.378;2023-07-16T04:11:52;9.97;;;4.83;;
19221;SDS011;9745;50.828;4.378;2023-07-16T04:14:18;10.10;;;4.30;;
19221;SDS011;9745;50.828;4.378;2023-07-16T04:16:44;11.70;;;4.93;;
19221;SDS011;9745;50.828;4.378;2023-07-16T04:19:10;16.43;;;4.90;;
19221;SDS011;9745;50.828;4.378;2023-07-16T04:21:36;12.53;;;4.93;;
19221;SDS011;9745;50.828;4.378;2023-07-16T04:24:02;12.70;;;4.50;;
19221;SDS011;9745;50.828;4.378;2023-07-16T04:26:28;15.20;;;5.17;;
19221;SDS011;9745;50.828;4.378;2023-07-16T04:28:54;15.27;;;5.40;;
19221;SDS011;9745;50.828;4.378;2023-07-16T04:31:20;13.73;;;4.97;;
19221;SDS011;9745;50.828;4.378;2023-07-16T04:33:46;8.30;;;4.33;;
19221;SDS011;9745;50.828;4.378;2023-07-16T04:36:12;9.40;;;4.37;;
19221;SDS011;9745;50.828;4.378;2023-07-16T04:38:38;9.57;;;4.47;;
19221;SDS011;9745;50.828;4.378;2023-07-16T04:41:04;14.17;;;5.23;;
19221;SDS011;9745;50.828;4.378;2023-07-16T04:43:30;11.47;;;4.83;;
19221;SDS011;9745;50.828;4.378;2023-07-16T04:45:56;12.50;;;4.73;;
19221;SDS011;9745;50.828;4.378;2023-07-16T04:48:22;10.43;;;5.43;;
19221;SDS011;9745;50.828;4.378;2023-07-16T04:50:48;14.73;;;5.50;;
19221;SDS011;9745;50.828;4.378;2023-07-16T04:53:14;8.40;;;4.90;;
19221;SDS011;9745;50.828;4.378;2023-07-16T04:55:43;14.30;;;5.00;;
19221;SDS011;9745;50.828;4.378;2023-07-16T04:58:11;11.27;;;5.40;;
19221;SDS011;9745;50.828;4.378;2023-07-16T05:00:37;11.27;;;5.03;;
19221;SDS011;9745;50.828;4.378;2023-07-16T05:03:03;13.90;;;5.30;;
19221;SDS011;9745;50.828;4.378;2023-07-16T05:05:29;12.70;;;6.43;;
19221;SDS011;9745;50.828;4.378;2023-07-16T05:07:55;13.10;;;5.17;;
19221;SDS011;9745;50.828;4.378;2023-07-16T05:10:21;10.23;;;5.20;;
19221;SDS011;9745;50.828;4.378;2023-07-16T05:12:47;9.53;;;5.33;;
19221;SDS011;9745;50.828;4.378;2023-07-16T05:15:13;13.60;;;5.90;;
19221;SDS011;9745;50.828;4.378;2023-07-16T05:17:39;11.70;;;5.50;;
19221;SDS011;9745;50.828;4.378;2023-07-16T05:20:05;12.03;;;6.27;;
19221;SDS011;9745;50.828;4.378;2023-07-16T05:22:32;22.53;;;6.87;;
19221;SDS011;9745;50.828;4.378;2023-07-16T05:24:58;12.67;;;6.20;;
19221;SDS011;9745;50.828;4.378;2023-07-16T05:27:24;16.53;;;6.03;;
19221;SDS011;9745;50.828;4.378;2023-07-16T05:29:50;13.90;;;5.80;;
19221;SDS011;9745;50.828;4.378;2023-07-16T05:32:16;9.10;;;5.73;;
19221;SDS011;9745;50.828;4.378;2023-07-16T05:34:42;12.50;;;5.83;;
19221;SDS011;9745;50.828;4.378;2023-07-16T05:37:08;17.87;;;6.00;;
19221;SDS011;9745;50.828;4.378;2023-07-16T05:39:34;11.83;;;6.10;;
19221;SDS011;9745;50.828;4.378;2023-07-16T05:42:00;14.57;;;6.17;;
19221;SDS011;9745;50.828;4.378;2023-07-16T05:44:29;13.73;;;5.97;;
19221;SDS011;9745;50.828;4.378;2023-07-16T05:46:55;12.23;;;5.53;;
19221;SDS011;9745;50.828;4.378;2023-07-16T05:49:21;18.20;;;6.33;;
19221;SDS011;9745;50.828;4.378;2023-07-16T05:51:47;15.60;;;6.30;;
19221;SDS011;9745;50.828;4.378;2023-07-16T05:54:13;14.97;;;5.87;;
19221;SDS011;9745;50.828;4.378;2023-07-16T05:56:39;11.27;;;5.87;;
19221;SDS011;9745;50.828;4.378;2023-07-16T05:59:05;17.13;;;6.47;;
19221;SDS011;9745;50.828;4.378;2023-07-16T06:01:31;11.97;;;5.67;;
19221;SDS011;9745;50.828;4.378;2023-07-16T06:03:57;15.87;;;5.50;;
19221;SDS011;9745;50.828;4.378;2023-07-16T06:06:23;10.03;;;4.70;;
19221;SDS011;9745;50.828;4.378;2023-07-16T06:08:49;12.33;;;4.70;;
19221;SDS011;9745;50.828;4.378;2023-07-16T06:11:15;12.40;;;4.77;;
19221;SDS011;9745;50.828;4.378;2023-07-16T06:13:41;7.43;;;5.00;;
19221;SDS011;9745;50.828;4.378;2023-07-16T06:16:07;12.17;;;4.77;;
19221;SDS011;9745;50.828;4.378;2023-07-16T06:18:33;10.40;;;4.93;;
19221;SDS011;9745;50.828;4.378;2023-07-16T06:20:59;12.70;;;5.67;;
19221;SDS011;9745;50.828;4.378;2023-07-16T06:23:25;11.60;;;5.07;;
19221;SDS011;9745;50.828;4.378;2023-07-16T06:25:54;10.17;;;5.30;;
19221;SDS011;9745;50.828;4.378;2023-07-16T06:28:21;13.43;;;5.50;;
19221;SDS011;9745;50.828;4.378;2023-07-16T06:30:47;12.77;;;5.87;;
19221;SDS011;9745;50.828;4.378;2023-07-16T06:33:13;12.23;;;6.40;;
19221;SDS011;9745;50.828;4.378;2023-07-16T06:35:39;14.37;;;6.73;;
19221;SDS011;9745;50.828;4.378;2023-07-16T06:38:04;14.60;;;5.77;;
19221;SDS011;9745;50.828;4.378;2023-07-16T06:40:30;12.00;;;5.63;;
19221;SDS011;9745;50.828;4.378;2023-07-16T06:42:57;9.37;;;5.60;;
19221;SDS011;9745;50.828;4.378;2023-07-16T06:45:23;9.23;;;5.57;;
19221;SDS011;9745;50.828;4.378;2023-07-16T06:47:49;10.87;;;4.83;;
19221;SDS011;9745;50.828;4.378;2023-07-16T06:50:15;8.97;;;5.30;;
19221;SDS011;9745;50.828;4.378;2023-07-16T06:52:41;13.87;;;4.97;;
19221;SDS011;9745;50.828;4.378;2023-07-16T06:55:07;10.83;;;4.90;;
19221;SDS011;9745;50.828;4.378;2023-07-16T06:57:33;10.40;;;4.80;;
19221;SDS011;9745;50.828;4.378;2023-07-16T06:59:59;8.33;;;4.40;;
19221;SDS011;9745;50.828;4.378;2023-07-16T07:02:25;11.83;;;4.97;;
19221;SDS011;9745;50.828;4.378;2023-07-16T07:04:51;9.03;;;4.70;;
19221;SDS011;9745;50.828;4.378;2023-07-16T07:07:17;8.17;;;4.43;;
19221;SDS011;9745;50.828;4.378;2023-07-16T07:09:46;8.93;;;4.90;;
19221;SDS011;9745;50.828;4.378;2023-07-16T07:12:13;14.20;;;6.53;;
19221;SDS011;9745;50.828;4.378;2023-07-16T07:14:39;13.43;;;6.57;;
19221;SDS011;9745;50.828;4.378;2023-07-16T07:17:05;14.77;;;7.57;;
19221;SDS011;9745;50.828;4.378;2023-07-16T07:19:31;17.77;;;10.27;;
19221;SDS011;9745;50.828;4.378;2023-07-16T07:21:57;18.77;;;8.93;;
19221;SDS011;9745;50.828;4.378;2023-07-16T07:24:23;12.83;;;7.17;;
19221;SDS011;9745;50.828;4.378;2023-07-16T07:26:49;24.40;;;13.47;;
19221;SDS011;9745;50.828;4.378;2023-07-16T07:29:15;12.00;;;6.33;;
19221;SDS011;9745;50.828;4.378;2023-07-16T07:31:41;11.20;;;6.00;;
19221;SDS011;9745;50.828;4.378;2023-07-16T07:34:07;11.77;;;6.83;;
19221;SDS011;9745;50.828;4.378;2023-07-16T07:36:33;12.07;;;5.40;;
19221;SDS011;9745;50.828;4.378;2023-07-16T07:38:59;11.00;;;5.57;;
19221;SDS011;9745;50.828;4.378;2023-07-16T07:41:25;12.37;;;6.00;;
19221;SDS011;9745;50.828;4.378;2023-07-16T07:43:51;11.27;;;6.23;;
19221;SDS011;9745;50.828;4.378;2023-07-16T07:46:17;11.70;;;6.60;;
19221;SDS011;9745;50.828;4.378;2023-07-16T07:48:43;13.37;;;6.33;;
19221;SDS011;9745;50.828;4.378;2023-07-16T07:51:09;10.20;;;5.37;;
19221;SDS011;9745;50.828;4.378;2023-07-16T07:53:35;12.50;;;5.90;;
19221;SDS011;9745;50.828;4.378;2023-07-16T07:56:01;9.80;;;4.90;;
19221;SDS011;9745;50.828;4.378;2023-07-16T07:58:27;9.80;;;5.50;;
19221;SDS011;9745;50.828;4.378;2023-07-16T08:00:53;8.87;;;4.40;;
19221;SDS011;9745;50.828;4.378;2023-07-16T08:03:19;11.30;;;5.60;;
19221;SDS011;9745;50.828;4.378;2023-07-16T08:05:47;11.00;;;4.93;;
19221;SDS011;9745;50.828;4.378;2023-07-16T08:08:13;13.60;;;5.60;;
19221;SDS011;9745;50.828;4.378;2023-07-16T08:10:39;12.27;;;4.90;;
19221;SDS011;9745;50.828;4.378;2023-07-16T08:13:05;12.50;;;4.77;;
19221;SDS011;9745;50.828;4.378;2023-07-16T08:15:32;10.40;;;3.93;;
19221;SDS011;9745;50.828;4.378;2023-07-16T08:17:58;8.07;;;3.58;;
19221;SDS011;9745;50.828;4.378;2023-07-16T08:20:24;10.95;;;4.13;;
19221;SDS011;9745;50.828;4.378;2023-07-16T08:22:50;9.43;;;3.95;;
19221;SDS011;9745;50.828;4.378;2023-07-16T08:25:16;9.40;;;3.58;;
19221;SDS011;9745;50.828;4.378;2023-07-16T08:27:43;5.47;;;3.78;;
19221;SDS011;9745;50.828;4.378;2023-07-16T08:30:10;6.95;;;3.78;;
19221;SDS011;9745;50.828;4.378;2023-07-16T08:32:36;6.68;;;3.17;;
19221;SDS011;9745;50.828;4.378;2023-07-16T08:35:02;5.90;;;3.58;;
19221;SDS011;9745;50.828;4.378;2023-07-16T08:37:28;6.45;;;3.33;;
19221;SDS011;9745;50.828;4.378;2023-07-16T08:39:54;6.65;;;3.55;;
19221;SDS011;9745;50.828;4.378;2023-07-16T08:42:20;6.85;;;3.33;;
19221;SDS011;9745;50.828;4.378;2023-07-16T08:44:50;7.10;;;3.50;;
19221;SDS011;9745;50.828;4.378;2023-07-16T08:47:16;6.85;;;3.35;;
19221;SDS011;9745;50.828;4.378;2023-07-16T08:49:44;6.25;;;3.22;;
19221;SDS011;9745;50.828;4.378;2023-07-16T08:52:16;7.82;;;3.70;;
19221;SDS011;9745;50.828;4.378;2023-07-16T08:54:43;8.70;;;4.22;;
19221;SDS011;9745;50.828;4.378;2023-07-16T08:57:09;7.47;;;3.88;;
19221;SDS011;9745;50.828;4.378;2023-07-16T08:59:35;8.63;;;4.10;;
19221;SDS011;9745;50.828;4.378;2023-07-16T09:02:02;8.97;;;4.20;;
19221;SDS011;9745;50.828;4.378;2023-07-16T09:04:28;7.00;;;4.40;;
19221;SDS011;9745;50.828;4.378;2023-07-16T09:06:54;8.83;;;4.07;;
19221;SDS011;9745;50.828;4.378;2023-07-16T09:09:23;6.70;;;4.43;;
19221;SDS011;9745;50.828;4.378;2023-07-16T09:11:50;8.70;;;3.90;;
19221;SDS011;9745;50.828;4.378;2023-07-16T09:14:16;7.20;;;4.17;;
19221;SDS011;9745;50.828;4.378;2023-07-16T09:16:42;6.13;;;3.43;;
19221;SDS011;9745;50.828;4.378;2023-07-16T09:19:11;8.43;;;4.10;;
19221;SDS011;9745;50.828;4.378;2023-07-16T09:21:40;8.20;;;4.00;;
19221;SDS011;9745;50.828;4.378;2023-07-16T09:24:07;6.87;;;4.07;;
19221;SDS011;9745;50.828;4.378;2023-07-16T09:26:36;6.30;;;4.07;;
19221;SDS011;9745;50.828;4.378;2023-07-16T09:29:05;7.83;;;3.90;;
19221;SDS011;9745;50.828;4.378;2023-07-16T09:31:32;7.40;;;3.63;;
19221;SDS011;9745;50.828;4.378;2023-07-16T09:33:58;7.40;;;3.77;;
19221;SDS011;9745;50.828;4.378;2023-07-16T09:36:24;12.50;;;4.20;;
19221;SDS011;9745;50.828;4.378;2023-07-16T09:38:51;9.33;;;4.30;;
19221;SDS011;9745;50.828;4.378;2023-07-16T09:41:17;7.80;;;3.93;;
19221;SDS011;9745;50.828;4.378;2023-07-16T09:43:43;9.47;;;4.40;;
19221;SDS011;9745;50.828;4.378;2023-07-16T09:46:09;6.77;;;4.10;;
19221;SDS011;9745;50.828;4.378;2023-07-16T09:48:36;6.50;;;4.27;;
19221;SDS011;9745;50.828;4.378;2023-07-16T09:51:02;7.70;;;4.17;;
19221;SDS011;9745;50.828;4.378;2023-07-16T09:53:28;10.43;;;3.90;;
19221;SDS011;9745;50.828;4.378;2023-07-16T09:55:56;10.47;;;4.80;;
19221;SDS011;9745;50.828;4.378;2023-07-16T09:58:23;7.97;;;4.47;;
19221;SDS011;9745;50.828;4.378;2023-07-16T10:00:50;10.13;;;5.00;;
19221;SDS011;9745;50.828;4.378;2023-07-16T10:03:16;10.70;;;5.03;;
19221;SDS011;9745;50.828;4.378;2023-07-16T10:05:42;14.37;;;5.07;;
19221;SDS011;9745;50.828;4.378;2023-07-16T10:08:18;11.87;;;4.73;;
19221;SDS011;9745;50.828;4.378;2023-07-16T10:10:46;8.57;;;4.03;;
19221;SDS011;9745;50.828;4.378;2023-07-16T10:13:17;8.77;;;4.33;;
19221;SDS011;9745;50.828;4.378;2023-07-16T10:15:58;9.10;;;4.00;;
19221;SDS011;9745;50.828;4.378;2023-07-16T10:20:51;8.50;;;4.03;;
19221;SDS011;9745;50.828;4.378;2023-07-16T10:23:17;10.23;;;4.57;;
19221;SDS011;9745;50.828;4.378;2023-07-16T10:25:59;9.43;;;4.83;;
19221;SDS011;9745;50.828;4.378;2023-07-16T10:28:25;10.90;;;4.47;;
19221;SDS011;9745;50.828;4.378;2023-07-16T10:30:51;9.43;;;4.07;;
19221;SDS011;9745;50.828;4.378;2023-07-16T10:33:17;9.33;;;4.20;;
19221;SDS011;9745;50.828;4.378;2023-07-16T10:35:45;10.33;;;4.27;;
19221;SDS011;9745;50.828;4.378;2023-07-16T10:38:11;10.83;;;4.20;;
19221;SDS011;9745;50.828;4.378;2023-07-16T10:40:44;9.63;;;4.40;;
19221;SDS011;9745;50.828;4.378;2023-07-16T10:43:10;9.90;;;4.17;;
19221;SDS011;9745;50.828;4.378;2023-07-16T10:45:36;7.13;;;3.90;;
19221;SDS011;9745;50.828;4.378;2023-07-16T10:48:03;10.30;;;4.10;;
19221;SDS011;9745;50.828;4.378;2023-07-16T10:50:31;8.83;;;4.40;;
19221;SDS011;9745;50.828;4.378;2023-07-16T10:52:57;6.73;;;3.93;;
19221;SDS011;9745;50.828;4.378;2023-07-16T10:55:26;7.67;;;3.63;;
19221;SDS011;9745;50.828;4.378;2023-07-16T10:57:52;8.83;;;3.63;;
19221;SDS011;9745;50.828;4.378;2023-07-16T11:00:19;9.87;;;3.90;;
19221;SDS011;9745;50.828;4.378;2023-07-16T11:02:45;9.83;;;4.30;;
19221;SDS011;9745;50.828;4.378;2023-07-16T11:05:15;6.70;;;4.23;;
19221;SDS011;9745;50.828;4.378;2023-07-16T11:07:45;11.67;;;4.50;;
19221;SDS011;9745;50.828;4.378;2023-07-16T11:10:11;10.60;;;3.83;;
19221;SDS011;9745;50.828;4.378;2023-07-16T11:12:37;12.03;;;4.80;;
19221;SDS011;9745;50.828;4.378;2023-07-16T11:15:03;9.60;;;4.20;;
19221;SDS011;9745;50.828;4.378;2023-07-16T11:17:29;8.17;;;4.47;;
19221;SDS011;9745;50.828;4.378;2023-07-16T11:19:55;6.97;;;3.90;;
19221;SDS011;9745;50.828;4.378;2023-07-16T11:22:25;10.93;;;4.50;;
19221;SDS011;9745;50.828;4.378;2023-07-16T11:24:52;10.83;;;4.87;;
19221;SDS011;9745;50.828;4.378;2023-07-16T11:27:19;8.63;;;4.20;;
19221;SDS011;9745;50.828;4.378;2023-07-16T11:29:52;10.13;;;4.03;;
19221;SDS011;9745;50.828;4.378;2023-07-16T11:32:33;8.43;;;3.93;;
19221;SDS011;9745;50.828;4.378;2023-07-16T11:35:00;15.40;;;5.43;;
19221;SDS011;9745;50.828;4.378;2023-07-16T11:37:30;7.63;;;3.90;;
19221;SDS011;9745;50.828;4.378;2023-07-16T11:40:06;9.67;;;3.80;;
19221;SDS011;9745;50.828;4.378;2023-07-16T11:42:34;8.40;;;4.20;;
19221;SDS011;9745;50.828;4.378;2023-07-16T11:45:00;13.63;;;4.73;;
19221;SDS011;9745;50.828;4.378;2023-07-16T11:47:27;12.23;;;4.27;;
19221;SDS011;9745;50.828;4.378;2023-07-16T11:49:53;8.30;;;4.20;;
19221;SDS011;9745;50.828;4.378;2023-07-16T11:52:23;7.17;;;4.27;;
19221;SDS011;9745;50.828;4.378;2023-07-16T11:54:49;9.70;;;4.43;;
19221;SDS011;9745;50.828;4.378;2023-07-16T11:57:15;9.63;;;3.70;;
19221;SDS011;9745;50.828;4.378;2023-07-16T11:59:41;8.43;;;3.90;;
19221;SDS011;9745;50.828;4.378;2023-07-16T12:02:07;6.80;;;3.83;;
19221;SDS011;9745;50.828;4.378;2023-07-16T12:04:33;9.67;;;3.93;;
19221;SDS011;9745;50.828;4.378;2023-07-16T12:06:59;10.20;;;4.30;;
19221;SDS011;9745;50.828;4.378;2023-07-16T12:09:25;7.53;;;3.43;;
19221;SDS011;9745;50.828;4.378;2023-07-16T12:11:52;9.17;;;3.77;;
19221;SDS011;9745;50.828;4.378;2023-07-16T12:14:18;8.37;;;4.00;;
19221;SDS011;9745;50.828;4.378;2023-07-16T12:16:44;6.87;;;3.60;;
19221;SDS011;9745;50.828;4.378;2023-07-16T12:19:10;7.40;;;3.47;;
19221;SDS011;9745;50.828;4.378;2023-07-16T12:21:36;11.17;;;4.03;;
19221;SDS011;9745;50.828;4.378;2023-07-16T12:24:02;7.93;;;3.67;;
19221;SDS011;9745;50.828;4.378;2023-07-16T12:26:28;8.17;;;3.47;;
19221;SDS011;9745;50.828;4.378;2023-07-16T12:28:54;6.43;;;3.37;;
19221;SDS011;9745;50.828;4.378;2023-07-16T12:31:20;8.07;;;3.70;;
19221;SDS011;9745;50.828;4.378;2023-07-16T12:33:46;8.10;;;3.80;;
19221;SDS011;9745;50.828;4.378;2023-07-16T12:36:13;7.07;;;3.37;;
19221;SDS011;9745;50.828;4.378;2023-07-16T12:38:39;6.73;;;3.83;;
19221;SDS011;9745;50.828;4.378;2023-07-16T12:41:05;12.50;;;3.50;;
19221;SDS011;9745;50.828;4.378;2023-07-16T12:43:31;10.50;;;3.40;;
19221;SDS011;9745;50.828;4.378;2023-07-16T12:46:01;11.03;;;4.00;;
19221;SDS011;9745;50.828;4.378;2023-07-16T12:48:28;8.73;;;3.37;;
19221;SDS011;9745;50.828;4.378;2023-07-16T12:50:54;8.00;;;3.30;;
19221;SDS011;9745;50.828;4.378;2023-07-16T12:53:20;7.97;;;3.53;;
19221;SDS011;9745;50.828;4.378;2023-07-16T12:55:46;6.47;;;3.43;;
19221;SDS011;9745;50.828;4.378;2023-07-16T12:58:12;8.47;;;3.50;;
19221;SDS011;9745;50.828;4.378;2023-07-16T13:00:38;9.13;;;4.13;;
19221;SDS011;9745;50.828;4.378;2023-07-16T13:03:04;6.53;;;3.20;;
19221;SDS011;9745;50.828;4.378;2023-07-16T13:05:30;8.80;;;3.60;;
19221;SDS011;9745;50.828;4.378;2023-07-16T13:07:56;4.53;;;2.90;;
19221;SDS011;9745;50.828;4.378;2023-07-16T13:10:22;6.33;;;3.27;;
19221;SDS011;9745;50.828;4.378;2023-07-16T13:12:49;6.87;;;2.97;;
19221;SDS011;9745;50.828;4.378;2023-07-16T13:15:15;7.63;;;3.47;;
19221;SDS011;9745;50.828;4.378;2023-07-16T13:17:41;5.40;;;3.30;;
19221;SDS011;9745;50.828;4.378;2023-07-16T13:20:07;6.50;;;3.20;;
19221;SDS011;9745;50.828;4.378;2023-07-16T13:22:34;6.80;;;3.30;;
19221;SDS011;9745;50.828;4.378;2023-07-16T13:25:00;5.50;;;3.10;;
19221;SDS011;9745;50.828;4.378;2023-07-16T13:27:26;7.23;;;2.90;;
19221;SDS011;9745;50.828;4.378;2023-07-16T13:29:52;6.40;;;2.53;;
19221;SDS011;9745;50.828;4.378;2023-07-16T13:32:18;6.03;;;3.10;;
19221;SDS011;9745;50.828;4.378;2023-07-16T13:34:44;4.90;;;3.13;;
19221;SDS011;9745;50.828;4.378;2023-07-16T13:37:10;5.67;;;2.60;;
19221;SDS011;9745;50.828;4.378;2023-07-16T13:39:36;5.30;;;2.43;;
19221;SDS011;9745;50.828;4.378;2023-07-16T13:42:02;3.73;;;2.10;;
19221;SDS011;9745;50.828;4.378;2023-07-16T13:44:28;4.23;;;2.27;;
19221;SDS011;9745;50.828;4.378;2023-07-16T13:46:54;4.43;;;2.20;;
19221;SDS011;9745;50.828;4.378;2023-07-16T13:49:20;8.50;;;2.73;;
19221;SDS011;9745;50.828;4.378;2023-07-16T13:51:46;6.00;;;2.80;;
19221;SDS011;9745;50.828;4.378;2023-07-16T13:54:12;6.17;;;2.10;;
19221;SDS011;9745;50.828;4.378;2023-07-16T13:56:38;3.57;;;1.80;;
19221;SDS011;9745;50.828;4.378;2023-07-16T13:59:04;4.50;;;2.10;;
19221;SDS011;9745;50.828;4.378;2023-07-16T14:01:30;4.23;;;1.97;;
19221;SDS011;9745;50.828;4.378;2023-07-16T14:03:56;5.60;;;1.90;;
19221;SDS011;9745;50.828;4.378;2023-07-16T14:06:22;6.03;;;2.03;;
19221;SDS011;9745;50.828;4.378;2023-07-16T14:08:48;5.07;;;2.00;;
19221;SDS011;9745;50.828;4.378;2023-07-16T14:11:14;5.50;;;2.80;;
19221;SDS011;9745;50.828;4.378;2023-07-16T14:13:43;6.07;;;2.30;;
19221;SDS011;9745;50.828;4.378;2023-07-16T14:16:09;4.17;;;2.60;;
19221;SDS011;9745;50.828;4.378;2023-07-16T14:18:35;6.57;;;2.70;;
19221;SDS011;9745;50.828;4.378;2023-07-16T14:21:01;4.03;;;2.63;;
19221;SDS011;9745;50.828;4.378;2023-07-16T14:23:27;5.63;;;2.57;;
19221;SDS011;9745;50.828;4.378;2023-07-16T14:25:53;6.17;;;2.73;;
19221;SDS011;9745;50.828;4.378;2023-07-16T14:28:19;4.27;;;2.60;;
19221;SDS011;9745;50.828;4.378;2023-07-16T14:30:45;5.80;;;2.97;;
19221;SDS011;9745;50.828;4.378;2023-07-16T14:33:11;6.57;;;2.77;;
19221;SDS011;9745;50.828;4.378;2023-07-16T14:35:37;6.63;;;3.10;;
19221;SDS011;9745;50.828;4.378;2023-07-16T14:38:03;6.60;;;3.10;;
19221;SDS011;9745;50.828;4.378;2023-07-16T14:40:29;8.43;;;3.00;;
19221;SDS011;9745;50.828;4.378;2023-07-16T14:42:55;3.90;;;2.53;;
19221;SDS011;9745;50.828;4.378;2023-07-16T14:45:21;4.33;;;2.57;;
19221;SDS011;9745;50.828;4.378;2023-07-16T14:47:47;6.20;;;2.30;;
19221;SDS011;9745;50.828;4.378;2023-07-16T14:50:13;4.87;;;1.97;;
19221;SDS011;9745;50.828;4.378;2023-07-16T14:52:39;4.97;;;1.90;;
19221;SDS011;9745;50.828;4.378;2023-07-16T14:55:05;3.33;;;1.87;;
19221;SDS011;9745;50.828;4.378;2023-07-16T14:57:33;5.90;;;1.80;;
19221;SDS011;9745;50.828;4.378;2023-07-16T14:59:59;3.03;;;1.50;;
19221;SDS011;9745;50.828;4.378;2023-07-16T15:02:25;3.10;;;1.37;;
19221;SDS011;9745;50.828;4.378;2023-07-16T15:04:51;4.27;;;1.67;;